sensor_id;sensor_type;location;lat;lon;timestamp;P1;durP1;ratioP1;P2;durP2;ratioP2
54201;SDS011;40108;53.152;5.844;2023-03-14T00:01:24;31.50;;;5.07;;
54201;SDS011;40108;53.152;5.844;2023-03-14T00:03:50;29.30;;;4.85;;
54201;SDS011;40108;53.152;5.844;2023-03-14T00:06:16;27.25;;;4.22;;
54201;SDS011;40108;53.152;5.844;2023-03-14T00:08:42;26.52;;;4.30;;
54201;SDS011;40108;53.152;5.844;2023-03-14T00:11:13;27.63;;;4.13;;
54201;SDS011;40108;53.152;5.844;2023-03-14T00:13:52;20.25;;;4.10;;
54201;SDS011;40108;53.152;5.844;2023-03-14T00:18:44;28.85;;;4.40;;
54201;SDS011;40108;53.152;5.844;2023-03-14T00:21:10;22.73;;;3.80;;
54201;SDS011;40108;53.152;5.844;2023-03-14T00:23:37;28.08;;;4.15;;
54201;SDS011;40108;53.152;5.844;2023-03-14T00:26:05;27.33;;;4.78;;
54201;SDS011;40108;53.152;5.844;2023-03-14T00:28:32;31.70;;;4.45;;
54201;SDS011;40108;53.152;5.844;2023-03-14T00:30:58;17.73;;;3.80;;
54201;SDS011;40108;53.152;5.844;2023-03-14T00:33:26;26.67;;;4.75;;
54201;SDS011;40108;53.152;5.844;2023-03-14T00:35:55;29.08;;;4.60;;
54201;SDS011;40108;53.152;5.844;2023-03-14T00:38:23;23.60;;;3.78;;
54201;SDS011;40108;53.152;5.844;2023-03-14T00:40:49;28.25;;;4.55;;
54201;SDS011;40108;53.152;5.844;2023-03-14T00:43:18;29.73;;;5.55;;
54201;SDS011;40108;53.152;5.844;2023-03-14T00:45:46;27.20;;;4.65;;
54201;SDS011;40108;53.152;5.844;2023-03-14T00:48:13;28.52;;;4.50;;
54201;SDS011;40108;53.152;5.844;2023-03-14T00:50:39;21.50;;;4.65;;
54201;SDS011;40108;53.152;5.844;2023-03-14T00:53:05;20.90;;;3.22;;
54201;SDS011;40108;53.152;5.844;2023-03-14T00:55:31;26.65;;;3.85;;
54201;SDS011;40108;53.152;5.844;2023-03-14T00:58:00;24.15;;;4.22;;
54201;SDS011;40108;53.152;5.844;2023-03-14T01:00:26;29.98;;;4.65;;
54201;SDS011;40108;53.152;5.844;2023-03-14T01:02:52;27.88;;;4.50;;
54201;SDS011;40108;53.152;5.844;2023-03-14T01:05:17;27.25;;;4.15;;
54201;SDS011;40108;53.152;5.844;2023-03-14T01:07:43;27.92;;;4.15;;
54201;SDS011;40108;53.152;5.844;2023-03-14T01:10:09;20.35;;;4.38;;
54201;SDS011;40108;53.152;5.844;2023-03-14T01:12:35;24.02;;;4.22;;
54201;SDS011;40108;53.152;5.844;2023-03-14T01:15:01;20.65;;;3.10;;
54201;SDS011;40108;53.152;5.844;2023-03-14T01:17:27;30.60;;;3.92;;
54201;SDS011;40108;53.152;5.844;2023-03-14T01:19:53;28.15;;;4.38;;
54201;SDS011;40108;53.152;5.844;2023-03-14T01:22:18;19.48;;;3.05;;
54201;SDS011;40108;53.152;5.844;2023-03-14T01:24:46;26.15;;;3.55;;
54201;SDS011;40108;53.152;5.844;2023-03-14T01:27:12;25.27;;;3.50;;
54201;SDS011;40108;53.152;5.844;2023-03-14T01:29:38;21.10;;;3.45;;
54201;SDS011;40108;53.152;5.844;2023-03-14T01:32:04;25.77;;;3.95;;
54201;SDS011;40108;53.152;5.844;2023-03-14T01:34:29;23.48;;;3.53;;
54201;SDS011;40108;53.152;5.844;2023-03-14T01:36:55;19.73;;;3.15;;
54201;SDS011;40108;53.152;5.844;2023-03-14T01:39:21;22.58;;;3.15;;
54201;SDS011;40108;53.152;5.844;2023-03-14T01:41:46;28.85;;;4.20;;
54201;SDS011;40108;53.152;5.844;2023-03-14T01:44:12;25.63;;;3.85;;
54201;SDS011;40108;53.152;5.844;2023-03-14T01:46:39;30.63;;;4.28;;
54201;SDS011;40108;53.152;5.844;2023-03-14T01:52:02;24.23;;;3.88;;
54201;SDS011;40108;53.152;5.844;2023-03-14T02:00:01;23.23;;;3.92;;
54201;SDS011;40108;53.152;5.844;2023-03-14T02:02:37;29.77;;;3.80;;
54201;SDS011;40108;53.152;5.844;2023-03-14T02:05:04;32.92;;;4.20;;
54201;SDS011;40108;53.152;5.844;2023-03-14T02:07:39;25.20;;;3.25;;
54201;SDS011;40108;53.152;5.844;2023-03-14T02:10:18;22.88;;;3.65;;
54201;SDS011;40108;53.152;5.844;2023-03-14T02:12:47;18.75;;;3.25;;
54201;SDS011;40108;53.152;5.844;2023-03-14T02:15:14;30.38;;;4.15;;
54201;SDS011;40108;53.152;5.844;2023-03-14T02:17:40;15.45;;;2.90;;
54201;SDS011;40108;53.152;5.844;2023-03-14T02:22:50;21.30;;;3.53;;
54201;SDS011;40108;53.152;5.844;2023-03-14T02:25:18;25.27;;;3.75;;
54201;SDS011;40108;53.152;5.844;2023-03-14T02:27:54;25.55;;;3.83;;
54201;SDS011;40108;53.152;5.844;2023-03-14T02:30:24;19.00;;;3.28;;
54201;SDS011;40108;53.152;5.844;2023-03-14T02:32:53;24.13;;;4.00;;
54201;SDS011;40108;53.152;5.844;2023-03-14T02:35:27;28.15;;;3.80;;
54201;SDS011;40108;53.152;5.844;2023-03-14T02:37:56;28.67;;;3.58;;
54201;SDS011;40108;53.152;5.844;2023-03-14T02:40:30;27.13;;;4.35;;
54201;SDS011;40108;53.152;5.844;2023-03-14T02:42:56;22.40;;;3.17;;
54201;SDS011;40108;53.152;5.844;2023-03-14T02:47:49;25.52;;;3.28;;
54201;SDS011;40108;53.152;5.844;2023-03-14T02:50:20;27.50;;;4.05;;
54201;SDS011;40108;53.152;5.844;2023-03-14T02:52:49;34.42;;;4.43;;
54201;SDS011;40108;53.152;5.844;2023-03-14T02:55:19;28.38;;;3.83;;
54201;SDS011;40108;53.152;5.844;2023-03-14T02:57:48;28.90;;;4.18;;
54201;SDS011;40108;53.152;5.844;2023-03-14T03:00:15;38.67;;;4.78;;
54201;SDS011;40108;53.152;5.844;2023-03-14T03:02:41;30.10;;;4.40;;
54201;SDS011;40108;53.152;5.844;2023-03-14T03:05:07;37.05;;;4.80;;
54201;SDS011;40108;53.152;5.844;2023-03-14T03:07:33;32.03;;;4.63;;
54201;SDS011;40108;53.152;5.844;2023-03-14T03:09:59;29.77;;;4.15;;
54201;SDS011;40108;53.152;5.844;2023-03-14T03:12:24;37.08;;;5.45;;
54201;SDS011;40108;53.152;5.844;2023-03-14T03:14:50;35.15;;;4.47;;
54201;SDS011;40108;53.152;5.844;2023-03-14T03:17:16;40.22;;;5.70;;
54201;SDS011;40108;53.152;5.844;2023-03-14T03:19:44;53.00;;;6.75;;
54201;SDS011;40108;53.152;5.844;2023-03-14T03:22:09;43.95;;;5.20;;
54201;SDS011;40108;53.152;5.844;2023-03-14T03:24:35;38.28;;;5.63;;
54201;SDS011;40108;53.152;5.844;2023-03-14T03:27:01;45.80;;;6.10;;
54201;SDS011;40108;53.152;5.844;2023-03-14T03:29:27;36.53;;;5.65;;
54201;SDS011;40108;53.152;5.844;2023-03-14T03:31:53;40.47;;;5.00;;
54201;SDS011;40108;53.152;5.844;2023-03-14T03:34:18;41.00;;;5.45;;
54201;SDS011;40108;53.152;5.844;2023-03-14T03:36:44;31.42;;;5.00;;
54201;SDS011;40108;53.152;5.844;2023-03-14T03:39:10;36.67;;;5.18;;
54201;SDS011;40108;53.152;5.844;2023-03-14T03:41:35;37.80;;;5.38;;
54201;SDS011;40108;53.152;5.844;2023-03-14T03:44:01;33.35;;;5.20;;
54201;SDS011;40108;53.152;5.844;2023-03-14T03:46:27;38.28;;;5.50;;
54201;SDS011;40108;53.152;5.844;2023-03-14T03:48:56;39.83;;;4.80;;
54201;SDS011;40108;53.152;5.844;2023-03-14T03:51:23;48.92;;;6.10;;
54201;SDS011;40108;53.152;5.844;2023-03-14T03:53:49;50.33;;;5.95;;
54201;SDS011;40108;53.152;5.844;2023-03-14T03:56:15;46.75;;;5.78;;
54201;SDS011;40108;53.152;5.844;2023-03-14T03:58:41;41.08;;;5.40;;
54201;SDS011;40108;53.152;5.844;2023-03-14T04:01:08;33.50;;;5.75;;
54201;SDS011;40108;53.152;5.844;2023-03-14T04:03:36;40.10;;;4.85;;
54201;SDS011;40108;53.152;5.844;2023-03-14T04:06:13;47.90;;;5.78;;
54201;SDS011;40108;53.152;5.844;2023-03-14T04:08:39;40.72;;;5.22;;
54201;SDS011;40108;53.152;5.844;2023-03-14T04:11:06;41.97;;;5.80;;
54201;SDS011;40108;53.152;5.844;2023-03-14T04:13:32;42.03;;;5.88;;
54201;SDS011;40108;53.152;5.844;2023-03-14T04:15:58;35.67;;;4.75;;
54201;SDS011;40108;53.152;5.844;2023-03-14T04:18:24;32.72;;;5.50;;
54201;SDS011;40108;53.152;5.844;2023-03-14T04:20:53;38.33;;;4.80;;
54201;SDS011;40108;53.152;5.844;2023-03-14T04:23:20;42.83;;;5.45;;
54201;SDS011;40108;53.152;5.844;2023-03-14T04:25:50;44.53;;;6.32;;
54201;SDS011;40108;53.152;5.844;2023-03-14T04:28:16;37.33;;;5.45;;
54201;SDS011;40108;53.152;5.844;2023-03-14T04:30:42;35.03;;;5.25;;
54201;SDS011;40108;53.152;5.844;2023-03-14T04:33:08;37.22;;;4.75;;
54201;SDS011;40108;53.152;5.844;2023-03-14T04:35:34;46.17;;;6.53;;
54201;SDS011;40108;53.152;5.844;2023-03-14T04:38:00;40.47;;;5.47;;
54201;SDS011;40108;53.152;5.844;2023-03-14T04:40:26;42.33;;;5.78;;
54201;SDS011;40108;53.152;5.844;2023-03-14T04:42:52;38.70;;;5.60;;
54201;SDS011;40108;53.152;5.844;2023-03-14T04:45:18;30.45;;;5.60;;
54201;SDS011;40108;53.152;5.844;2023-03-14T04:47:43;34.28;;;5.10;;
54201;SDS011;40108;53.152;5.844;2023-03-14T04:50:09;29.98;;;5.05;;
54201;SDS011;40108;53.152;5.844;2023-03-14T04:52:36;31.95;;;5.70;;
54201;SDS011;40108;53.152;5.844;2023-03-14T04:55:01;33.63;;;5.82;;
54201;SDS011;40108;53.152;5.844;2023-03-14T04:57:27;24.13;;;4.90;;
54201;SDS011;40108;53.152;5.844;2023-03-14T04:59:53;27.00;;;5.25;;
54201;SDS011;40108;53.152;5.844;2023-03-14T05:02:18;24.80;;;5.60;;
54201;SDS011;40108;53.152;5.844;2023-03-14T05:04:44;27.60;;;5.72;;
54201;SDS011;40108;53.152;5.844;2023-03-14T05:07:10;28.90;;;7.13;;
54201;SDS011;40108;53.152;5.844;2023-03-14T05:09:35;24.23;;;6.60;;
54201;SDS011;40108;53.152;5.844;2023-03-14T05:12:01;27.98;;;6.10;;
54201;SDS011;40108;53.152;5.844;2023-03-14T05:14:27;20.25;;;6.15;;
54201;SDS011;40108;53.152;5.844;2023-03-14T05:16:52;19.73;;;6.97;;
54201;SDS011;40108;53.152;5.844;2023-03-14T05:19:18;19.25;;;6.22;;
54201;SDS011;40108;53.152;5.844;2023-03-14T05:21:44;24.10;;;6.75;;
54201;SDS011;40108;53.152;5.844;2023-03-14T05:24:09;21.50;;;6.30;;
54201;SDS011;40108;53.152;5.844;2023-03-14T05:26:35;27.02;;;7.32;;
54201;SDS011;40108;53.152;5.844;2023-03-14T05:29:01;26.25;;;7.75;;
54201;SDS011;40108;53.152;5.844;2023-03-14T05:31:27;13.77;;;6.68;;
54201;SDS011;40108;53.152;5.844;2023-03-14T05:33:52;20.63;;;6.00;;
54201;SDS011;40108;53.152;5.844;2023-03-14T05:36:18;22.95;;;6.00;;
54201;SDS011;40108;53.152;5.844;2023-03-14T05:38:44;22.40;;;5.55;;
54201;SDS011;40108;53.152;5.844;2023-03-14T05:41:09;18.30;;;5.00;;
54201;SDS011;40108;53.152;5.844;2023-03-14T05:43:35;19.58;;;4.35;;
54201;SDS011;40108;53.152;5.844;2023-03-14T05:46:01;15.65;;;4.20;;
54201;SDS011;40108;53.152;5.844;2023-03-14T05:48:26;15.60;;;4.05;;
54201;SDS011;40108;53.152;5.844;2023-03-14T05:50:56;16.25;;;3.72;;
54201;SDS011;40108;53.152;5.844;2023-03-14T05:53:22;18.83;;;3.17;;
54201;SDS011;40108;53.152;5.844;2023-03-14T05:55:50;11.85;;;1.90;;
54201;SDS011;40108;53.152;5.844;2023-03-14T05:58:17;7.95;;;1.30;;
54201;SDS011;40108;53.152;5.844;2023-03-14T06:00:43;16.48;;;1.80;;
54201;SDS011;40108;53.152;5.844;2023-03-14T06:03:09;11.50;;;1.25;;
54201;SDS011;40108;53.152;5.844;2023-03-14T06:05:35;12.65;;;1.23;;
54201;SDS011;40108;53.152;5.844;2023-03-14T06:08:00;9.23;;;1.10;;
54201;SDS011;40108;53.152;5.844;2023-03-14T06:10:26;19.50;;;1.85;;
54201;SDS011;40108;53.152;5.844;2023-03-14T06:12:52;18.15;;;2.38;;
54201;SDS011;40108;53.152;5.844;2023-03-14T06:15:18;20.85;;;1.90;;
54201;SDS011;40108;53.152;5.844;2023-03-14T06:17:44;27.80;;;2.40;;
54201;SDS011;40108;53.152;5.844;2023-03-14T06:20:10;17.20;;;1.98;;
54201;SDS011;40108;53.152;5.844;2023-03-14T06:22:36;18.63;;;2.35;;
54201;SDS011;40108;53.152;5.844;2023-03-14T06:25:03;17.15;;;1.70;;
54201;SDS011;40108;53.152;5.844;2023-03-14T06:27:29;20.17;;;2.38;;
54201;SDS011;40108;53.152;5.844;2023-03-14T06:29:55;12.27;;;1.13;;
54201;SDS011;40108;53.152;5.844;2023-03-14T06:32:21;15.48;;;1.45;;
54201;SDS011;40108;53.152;5.844;2023-03-14T06:34:47;10.70;;;0.90;;
54201;SDS011;40108;53.152;5.844;2023-03-14T06:37:12;17.60;;;1.20;;
54201;SDS011;40108;53.152;5.844;2023-03-14T06:39:38;13.95;;;2.13;;
54201;SDS011;40108;53.152;5.844;2023-03-14T06:42:04;11.02;;;1.40;;
54201;SDS011;40108;53.152;5.844;2023-03-14T06:44:30;15.27;;;1.35;;
54201;SDS011;40108;53.152;5.844;2023-03-14T06:46:56;11.45;;;0.80;;
54201;SDS011;40108;53.152;5.844;2023-03-14T06:49:22;9.07;;;0.93;;
54201;SDS011;40108;53.152;5.844;2023-03-14T06:51:47;7.75;;;1.13;;
54201;SDS011;40108;53.152;5.844;2023-03-14T06:54:13;6.75;;;0.80;;
54201;SDS011;40108;53.152;5.844;2023-03-14T06:56:39;5.25;;;0.80;;
54201;SDS011;40108;53.152;5.844;2023-03-14T06:59:05;7.60;;;0.80;;
54201;SDS011;40108;53.152;5.844;2023-03-14T07:01:30;11.07;;;0.95;;
54201;SDS011;40108;53.152;5.844;2023-03-14T07:03:57;7.35;;;0.77;;
54201;SDS011;40108;53.152;5.844;2023-03-14T07:06:23;7.50;;;0.82;;
54201;SDS011;40108;53.152;5.844;2023-03-14T07:08:50;7.80;;;0.80;;
54201;SDS011;40108;53.152;5.844;2023-03-14T07:11:16;6.10;;;0.90;;
54201;SDS011;40108;53.152;5.844;2023-03-14T07:13:42;10.77;;;0.90;;
54201;SDS011;40108;53.152;5.844;2023-03-14T07:16:08;10.60;;;1.20;;
54201;SDS011;40108;53.152;5.844;2023-03-14T07:18:33;8.48;;;1.00;;
54201;SDS011;40108;53.152;5.844;2023-03-14T07:20:59;6.22;;;1.30;;
54201;SDS011;40108;53.152;5.844;2023-03-14T07:23:25;6.88;;;0.60;;
54201;SDS011;40108;53.152;5.844;2023-03-14T07:25:51;9.52;;;1.00;;
54201;SDS011;40108;53.152;5.844;2023-03-14T07:28:18;4.88;;;0.80;;
54201;SDS011;40108;53.152;5.844;2023-03-14T07:30:46;8.38;;;0.77;;
54201;SDS011;40108;53.152;5.844;2023-03-14T07:33:12;12.52;;;1.05;;
54201;SDS011;40108;53.152;5.844;2023-03-14T07:35:38;9.35;;;1.00;;
54201;SDS011;40108;53.152;5.844;2023-03-14T07:38:03;12.00;;;0.90;;
54201;SDS011;40108;53.152;5.844;2023-03-14T07:40:29;11.85;;;1.05;;
54201;SDS011;40108;53.152;5.844;2023-03-14T07:42:55;12.85;;;1.73;;
54201;SDS011;40108;53.152;5.844;2023-03-14T07:45:21;9.52;;;1.20;;
54201;SDS011;40108;53.152;5.844;2023-03-14T07:47:46;22.63;;;1.88;;
54201;SDS011;40108;53.152;5.844;2023-03-14T07:50:12;14.65;;;1.20;;
54201;SDS011;40108;53.152;5.844;2023-03-14T07:52:38;13.30;;;1.60;;
54201;SDS011;40108;53.152;5.844;2023-03-14T07:55:03;11.52;;;1.63;;
54201;SDS011;40108;53.152;5.844;2023-03-14T07:57:29;13.30;;;1.48;;
54201;SDS011;40108;53.152;5.844;2023-03-14T07:59:55;16.17;;;1.70;;
54201;SDS011;40108;53.152;5.844;2023-03-14T08:02:21;11.77;;;2.00;;
54201;SDS011;40108;53.152;5.844;2023-03-14T08:04:49;12.07;;;1.42;;
54201;SDS011;40108;53.152;5.844;2023-03-14T08:07:15;12.82;;;1.60;;
54201;SDS011;40108;53.152;5.844;2023-03-14T08:09:41;13.43;;;1.60;;
54201;SDS011;40108;53.152;5.844;2023-03-14T08:12:07;12.57;;;1.67;;
54201;SDS011;40108;53.152;5.844;2023-03-14T08:14:33;20.15;;;2.25;;
54201;SDS011;40108;53.152;5.844;2023-03-14T08:16:59;13.07;;;1.45;;
54201;SDS011;40108;53.152;5.844;2023-03-14T08:19:25;11.85;;;1.98;;
54201;SDS011;40108;53.152;5.844;2023-03-14T08:21:51;15.82;;;2.28;;
54201;SDS011;40108;53.152;5.844;2023-03-14T08:24:17;20.60;;;2.17;;
54201;SDS011;40108;53.152;5.844;2023-03-14T08:26:42;15.25;;;1.92;;
54201;SDS011;40108;53.152;5.844;2023-03-14T08:29:08;17.05;;;2.10;;
54201;SDS011;40108;53.152;5.844;2023-03-14T08:31:37;22.92;;;2.63;;
54201;SDS011;40108;53.152;5.844;2023-03-14T08:34:02;14.93;;;2.05;;
54201;SDS011;40108;53.152;5.844;2023-03-14T08:36:28;16.27;;;2.75;;
54201;SDS011;40108;53.152;5.844;2023-03-14T08:38:54;19.50;;;2.53;;
54201;SDS011;40108;53.152;5.844;2023-03-14T08:41:20;14.38;;;2.70;;
54201;SDS011;40108;53.152;5.844;2023-03-14T08:43:45;19.83;;;2.58;;
54201;SDS011;40108;53.152;5.844;2023-03-14T08:46:11;19.60;;;2.67;;
54201;SDS011;40108;53.152;5.844;2023-03-14T08:48:37;25.75;;;3.50;;
54201;SDS011;40108;53.152;5.844;2023-03-14T08:51:10;27.80;;;3.58;;
54201;SDS011;40108;53.152;5.844;2023-03-14T08:53:40;23.80;;;2.80;;
54201;SDS011;40108;53.152;5.844;2023-03-14T08:56:07;24.08;;;2.85;;
54201;SDS011;40108;53.152;5.844;2023-03-14T08:58:35;33.10;;;3.30;;
54201;SDS011;40108;53.152;5.844;2023-03-14T09:01:03;18.20;;;2.60;;
54201;SDS011;40108;53.152;5.844;2023-03-14T09:03:30;24.20;;;3.05;;
54201;SDS011;40108;53.152;5.844;2023-03-14T09:05:56;20.95;;;3.33;;
54201;SDS011;40108;53.152;5.844;2023-03-14T09:08:26;26.23;;;2.80;;
54201;SDS011;40108;53.152;5.844;2023-03-14T09:10:51;18.20;;;2.58;;
54201;SDS011;40108;53.152;5.844;2023-03-14T09:13:17;26.10;;;2.95;;
54201;SDS011;40108;53.152;5.844;2023-03-14T09:15:43;18.92;;;2.50;;
54201;SDS011;40108;53.152;5.844;2023-03-14T09:18:08;20.67;;;2.92;;
54201;SDS011;40108;53.152;5.844;2023-03-14T09:20:34;26.40;;;3.17;;
54201;SDS011;40108;53.152;5.844;2023-03-14T09:23:00;22.90;;;2.78;;
54201;SDS011;40108;53.152;5.844;2023-03-14T09:25:26;22.98;;;2.53;;
54201;SDS011;40108;53.152;5.844;2023-03-14T09:27:52;28.17;;;3.53;;
54201;SDS011;40108;53.152;5.844;2023-03-14T09:30:17;29.20;;;3.35;;
54201;SDS011;40108;53.152;5.844;2023-03-14T09:32:43;19.58;;;2.85;;
54201;SDS011;40108;53.152;5.844;2023-03-14T09:35:09;31.17;;;3.35;;
54201;SDS011;40108;53.152;5.844;2023-03-14T09:37:35;24.77;;;2.95;;
54201;SDS011;40108;53.152;5.844;2023-03-14T09:40:00;28.20;;;2.92;;
54201;SDS011;40108;53.152;5.844;2023-03-14T09:42:33;22.80;;;2.80;;
54201;SDS011;40108;53.152;5.844;2023-03-14T09:45:03;20.95;;;3.40;;
54201;SDS011;40108;53.152;5.844;2023-03-14T09:47:32;25.23;;;2.78;;
54201;SDS011;40108;53.152;5.844;2023-03-14T09:50:02;17.23;;;3.03;;
54201;SDS011;40108;53.152;5.844;2023-03-14T09:52:32;23.15;;;3.00;;
54201;SDS011;40108;53.152;5.844;2023-03-14T09:55:34;16.58;;;2.28;;
54201;SDS011;40108;53.152;5.844;2023-03-14T09:57:57;26.02;;;3.25;;
54201;SDS011;40108;53.152;5.844;2023-03-14T10:00:27;25.40;;;2.88;;
54201;SDS011;40108;53.152;5.844;2023-03-14T10:05:40;17.90;;;2.30;;
54201;SDS011;40108;53.152;5.844;2023-03-14T10:08:09;15.73;;;2.17;;
54201;SDS011;40108;53.152;5.844;2023-03-14T10:10:36;17.67;;;2.15;;
54201;SDS011;40108;53.152;5.844;2023-03-14T10:13:16;19.58;;;2.17;;
54201;SDS011;40108;53.152;5.844;2023-03-14T10:15:50;15.77;;;2.08;;
54201;SDS011;40108;53.152;5.844;2023-03-14T10:18:24;12.57;;;2.33;;
54201;SDS011;40108;53.152;5.844;2023-03-14T10:21:01;14.30;;;2.50;;
54201;SDS011;40108;53.152;5.844;2023-03-14T10:23:32;17.43;;;2.83;;
54201;SDS011;40108;53.152;5.844;2023-03-14T10:26:03;14.05;;;1.90;;
54201;SDS011;40108;53.152;5.844;2023-03-14T10:28:32;17.75;;;2.25;;
54201;SDS011;40108;53.152;5.844;2023-03-14T10:31:02;12.18;;;1.60;;
54201;SDS011;40108;53.152;5.844;2023-03-14T10:33:30;13.35;;;1.70;;
54201;SDS011;40108;53.152;5.844;2023-03-14T10:36:02;14.05;;;1.60;;
54201;SDS011;40108;53.152;5.844;2023-03-14T10:38:47;9.30;;;1.55;;
54201;SDS011;40108;53.152;5.844;2023-03-14T10:41:34;12.57;;;2.10;;
54201;SDS011;40108;53.152;5.844;2023-03-14T10:43:59;11.68;;;1.85;;
54201;SDS011;40108;53.152;5.844;2023-03-14T10:46:29;15.60;;;1.70;;
54201;SDS011;40108;53.152;5.844;2023-03-14T10:48:57;17.73;;;2.22;;
54201;SDS011;40108;53.152;5.844;2023-03-14T10:51:27;13.02;;;2.00;;
54201;SDS011;40108;53.152;5.844;2023-03-14T10:56:23;10.93;;;1.60;;
54201;SDS011;40108;53.152;5.844;2023-03-14T10:58:51;5.55;;;1.50;;
54201;SDS011;40108;53.152;5.844;2023-03-14T11:09:50;8.40;;;1.30;;
54201;SDS011;40108;53.152;5.844;2023-03-14T11:20:51;5.80;;;1.10;;
54201;SDS011;40108;53.152;5.844;2023-03-14T11:23:21;8.25;;;0.90;;
54201;SDS011;40108;53.152;5.844;2023-03-14T11:28:23;7.18;;;1.63;;
54201;SDS011;40108;53.152;5.844;2023-03-14T11:30:55;10.50;;;1.60;;
54201;SDS011;40108;53.152;5.844;2023-03-14T11:36:38;12.43;;;1.70;;
54201;SDS011;40108;53.152;5.844;2023-03-14T11:39:16;13.10;;;1.60;;
54201;SDS011;40108;53.152;5.844;2023-03-14T11:41:51;13.07;;;2.00;;
54201;SDS011;40108;53.152;5.844;2023-03-14T11:44:19;8.80;;;1.45;;
54201;SDS011;40108;53.152;5.844;2023-03-14T11:46:55;8.15;;;1.42;;
54201;SDS011;40108;53.152;5.844;2023-03-14T11:54:56;14.27;;;2.03;;
54201;SDS011;40108;53.152;5.844;2023-03-14T11:57:31;9.82;;;1.70;;
54201;SDS011;40108;53.152;5.844;2023-03-14T12:03:26;9.10;;;1.55;;
54201;SDS011;40108;53.152;5.844;2023-03-14T12:13:33;11.52;;;1.25;;
54201;SDS011;40108;53.152;5.844;2023-03-14T12:16:06;11.73;;;1.52;;
54201;SDS011;40108;53.152;5.844;2023-03-14T12:18:45;15.48;;;1.98;;
54201;SDS011;40108;53.152;5.844;2023-03-14T12:21:11;11.43;;;1.73;;
54201;SDS011;40108;53.152;5.844;2023-03-14T12:23:42;11.07;;;1.75;;
54201;SDS011;40108;53.152;5.844;2023-03-14T12:26:17;10.05;;;2.05;;
54201;SDS011;40108;53.152;5.844;2023-03-14T12:32:05;5.53;;;1.10;;
54201;SDS011;40108;53.152;5.844;2023-03-14T12:34:26;5.97;;;1.23;;
54201;SDS011;40108;53.152;5.844;2023-03-14T12:40:03;8.68;;;1.13;;
54201;SDS011;40108;53.152;5.844;2023-03-14T12:48:00;15.65;;;2.05;;
54201;SDS011;40108;53.152;5.844;2023-03-14T12:51:02;8.40;;;1.23;;
54201;SDS011;40108;53.152;5.844;2023-03-14T12:59:05;11.48;;;2.53;;
54201;SDS011;40108;53.152;5.844;2023-03-14T13:01:38;17.17;;;1.65;;
54201;SDS011;40108;53.152;5.844;2023-03-14T13:04:13;7.55;;;1.50;;
54201;SDS011;40108;53.152;5.844;2023-03-14T13:06:52;11.68;;;1.52;;
54201;SDS011;40108;53.152;5.844;2023-03-14T13:14:33;6.47;;;1.00;;
54201;SDS011;40108;53.152;5.844;2023-03-14T13:17:01;14.45;;;2.85;;
54201;SDS011;40108;53.152;5.844;2023-03-14T13:19:28;8.50;;;1.17;;
54201;SDS011;40108;53.152;5.844;2023-03-14T13:22:03;12.05;;;1.42;;
54201;SDS011;40108;53.152;5.844;2023-03-14T13:24:33;10.27;;;1.42;;
54201;SDS011;40108;53.152;5.844;2023-03-14T13:26:59;11.32;;;1.25;;
54201;SDS011;40108;53.152;5.844;2023-03-14T13:29:32;12.68;;;1.52;;
54201;SDS011;40108;53.152;5.844;2023-03-14T13:31:59;13.18;;;1.45;;
54201;SDS011;40108;53.152;5.844;2023-03-14T13:34:30;10.30;;;1.73;;
54201;SDS011;40108;53.152;5.844;2023-03-14T13:36:58;8.73;;;1.27;;
54201;SDS011;40108;53.152;5.844;2023-03-14T13:39:25;9.48;;;1.60;;
54201;SDS011;40108;53.152;5.844;2023-03-14T13:41:55;13.43;;;1.40;;
54201;SDS011;40108;53.152;5.844;2023-03-14T13:46:51;11.38;;;1.75;;
54201;SDS011;40108;53.152;5.844;2023-03-14T13:49:22;12.40;;;1.70;;
54201;SDS011;40108;53.152;5.844;2023-03-14T13:51:50;7.60;;;1.20;;
54201;SDS011;40108;53.152;5.844;2023-03-14T13:54:17;10.82;;;2.08;;
54201;SDS011;40108;53.152;5.844;2023-03-14T13:56:45;7.93;;;1.40;;
54201;SDS011;40108;53.152;5.844;2023-03-14T13:59:24;9.35;;;1.33;;
54201;SDS011;40108;53.152;5.844;2023-03-14T14:01:52;8.98;;;1.33;;
54201;SDS011;40108;53.152;5.844;2023-03-14T14:04:20;6.40;;;1.15;;
54201;SDS011;40108;53.152;5.844;2023-03-14T14:06:49;5.78;;;0.98;;
54201;SDS011;40108;53.152;5.844;2023-03-14T14:09:24;7.95;;;1.80;;
54201;SDS011;40108;53.152;5.844;2023-03-14T14:12:06;10.35;;;1.33;;
54201;SDS011;40108;53.152;5.844;2023-03-14T14:14:40;11.55;;;1.25;;
54201;SDS011;40108;53.152;5.844;2023-03-14T14:17:10;8.75;;;1.20;;
54201;SDS011;40108;53.152;5.844;2023-03-14T14:19:37;7.40;;;1.08;;
54201;SDS011;40108;53.152;5.844;2023-03-14T14:22:05;9.55;;;1.30;;
54201;SDS011;40108;53.152;5.844;2023-03-14T14:24:32;10.52;;;1.58;;
54201;SDS011;40108;53.152;5.844;2023-03-14T14:27:02;12.02;;;1.30;;
54201;SDS011;40108;53.152;5.844;2023-03-14T14:29:43;13.20;;;1.80;;
54201;SDS011;40108;53.152;5.844;2023-03-14T14:32:21;16.98;;;1.85;;
54201;SDS011;40108;53.152;5.844;2023-03-14T14:34:55;10.30;;;1.33;;
54201;SDS011;40108;53.152;5.844;2023-03-14T14:39:56;15.15;;;1.83;;
54201;SDS011;40108;53.152;5.844;2023-03-14T14:42:28;12.52;;;1.80;;
54201;SDS011;40108;53.152;5.844;2023-03-14T14:44:56;10.18;;;1.90;;
54201;SDS011;40108;53.152;5.844;2023-03-14T14:47:24;12.85;;;1.70;;
54201;SDS011;40108;53.152;5.844;2023-03-14T14:49:52;12.82;;;1.95;;
54201;SDS011;40108;53.152;5.844;2023-03-14T14:52:21;12.63;;;1.60;;
54201;SDS011;40108;53.152;5.844;2023-03-14T14:54:59;11.55;;;1.60;;
54201;SDS011;40108;53.152;5.844;2023-03-14T14:57:33;10.57;;;1.67;;
54201;SDS011;40108;53.152;5.844;2023-03-14T15:00:10;9.05;;;1.52;;
54201;SDS011;40108;53.152;5.844;2023-03-14T15:02:47;7.68;;;1.20;;
54201;SDS011;40108;53.152;5.844;2023-03-14T15:05:18;11.45;;;1.55;;
54201;SDS011;40108;53.152;5.844;2023-03-14T15:07:46;15.82;;;2.00;;
54201;SDS011;40108;53.152;5.844;2023-03-14T15:10:16;12.00;;;1.58;;
54201;SDS011;40108;53.152;5.844;2023-03-14T15:15:10;10.13;;;1.48;;
54201;SDS011;40108;53.152;5.844;2023-03-14T15:17:37;9.05;;;1.20;;
54201;SDS011;40108;53.152;5.844;2023-03-14T15:20:04;10.55;;;1.38;;
54201;SDS011;40108;53.152;5.844;2023-03-14T15:22:31;10.63;;;1.77;;
54201;SDS011;40108;53.152;5.844;2023-03-14T15:24:56;14.57;;;1.92;;
54201;SDS011;40108;53.152;5.844;2023-03-14T15:27:22;10.60;;;1.50;;
54201;SDS011;40108;53.152;5.844;2023-03-14T15:29:48;9.50;;;1.58;;
54201;SDS011;40108;53.152;5.844;2023-03-14T15:32:14;14.93;;;1.80;;
54201;SDS011;40108;53.152;5.844;2023-03-14T15:34:41;12.38;;;1.95;;
54201;SDS011;40108;53.152;5.844;2023-03-14T15:37:14;18.08;;;1.80;;
54201;SDS011;40108;53.152;5.844;2023-03-14T15:39:41;12.93;;;1.77;;
54201;SDS011;40108;53.152;5.844;2023-03-14T15:42:07;15.60;;;1.60;;
54201;SDS011;40108;53.152;5.844;2023-03-14T15:44:34;19.00;;;2.08;;
54201;SDS011;40108;53.152;5.844;2023-03-14T15:47:00;17.10;;;2.10;;
54201;SDS011;40108;53.152;5.844;2023-03-14T15:49:26;13.63;;;1.77;;
54201;SDS011;40108;53.152;5.844;2023-03-14T15:51:52;16.10;;;1.77;;
54201;SDS011;40108;53.152;5.844;2023-03-14T15:54:18;11.55;;;1.70;;
54201;SDS011;40108;53.152;5.844;2023-03-14T15:56:44;17.40;;;2.08;;
54201;SDS011;40108;53.152;5.844;2023-03-14T15:59:10;13.15;;;1.30;;
54201;SDS011;40108;53.152;5.844;2023-03-14T16:01:35;12.52;;;1.50;;
54201;SDS011;40108;53.152;5.844;2023-03-14T16:04:01;10.98;;;1.80;;
54201;SDS011;40108;53.152;5.844;2023-03-14T16:06:27;11.25;;;1.35;;
54201;SDS011;40108;53.152;5.844;2023-03-14T16:08:53;12.93;;;1.58;;
54201;SDS011;40108;53.152;5.844;2023-03-14T16:11:19;13.23;;;1.25;;